Time;durP1;ratioP1;P1;durP2;ratioP2;P2;SDS_P1;SDS_P2;PMS_P1;PMS_P2;Temp;Humidity;BMP_temperature;BMP_pressure;BME280_temperature;BME280_humidity;BME280_pressure;Samples;Min_cycle;Max_cycle;Signal;HPM_P1;HPM_P2
2021/04/09 00:00:51;;;;;;;25.70;15.95;;;;;;;-0.65;100.00;99807.64;1698485;83;20932;-60
2021/04/09 00:03:19;;;;;;;25.67;16.07;;;;;;;-0.73;100.00;99803.75;1714727;82;21003;-60
2021/04/09 00:05:47;;;;;;;28.90;16.70;;;;;;;-0.78;100.00;99802.14;1698483;83;21401;-60
2021/04/09 00:08:14;;;;;;;31.60;18.63;;;;;;;-0.82;100.00;99812.70;1710632;83;21449;-61
2021/04/09 00:10:42;;;;;;;27.98;17.02;;;;;;;-0.92;100.00;99810.28;1686309;84;21021;-60
2021/04/09 00:13:10;;;;;;;30.85;20.68;;;;;;;-0.99;100.00;99813.78;1709212;82;21121;-60
2021/04/09 00:15:39;;;;;;;;;;;;;;;-0.97;100.00;99817.06;1711646;82;21004;-60
2021/04/09 00:18:06;;;;;;;25.02;16.15;;;;;;;-1.00;100.00;99815.60;1679362;84;21408;-60
2021/04/09 00:20:35;;;;;;;29.50;17.23;;;;;;;-1.11;100.00;99819.92;1709213;84;20911;-60
2021/04/09 00:23:03;;;;;;;29.27;19.07;;;;;;;-1.28;100.00;99819.16;1709272;82;20936;-60
2021/04/09 00:25:31;;;;;;;25.55;15.58;;;;;;;-1.28;100.00;99819.16;1709235;82;23065;-60
2021/04/09 00:27:59;;;;;;;26.93;16.87;;;;;;;-1.28;100.00;99822.30;1709302;82;20979;-60
2021/04/09 00:30:27;;;;;;;29.50;16.52;;;;;;;-1.25;100.00;99820.63;1709111;82;21300;-60
2021/04/09 00:32:55;;;;;;;24.92;15.78;;;;;;;-1.28;100.00;99826.25;1709085;82;21472;-60
2021/04/09 00:35:23;;;;;;;30.48;19.23;;;;;;;-1.33;100.00;99828.88;1709326;83;20944;-60
2021/04/09 00:37:51;;;;;;;32.07;19.00;;;;;;;-1.32;100.00;99832.36;1709357;83;21118;-61
2021/04/09 00:40:21;;;;;;;28.12;17.52;;;;;;;-1.34;100.00;99840.92;1709228;82;21539;-61
2021/04/09 00:42:49;;;;;;;34.80;19.35;;;;;;;-1.36;100.00;99844.22;1709102;82;21421;-60
2021/04/09 00:45:18;;;;;;;30.30;18.85;;;;;;;-1.36;100.00;99849.48;1709220;82;21050;-60
2021/04/09 00:47:46;;;;;;;28.98;17.92;;;;;;;-1.40;100.00;99842.91;1709247;83;24985;-61
2021/04/09 00:50:15;;;;;;;28.62;17.40;;;;;;;-1.41;100.00;99848.67;1694647;83;21135;-61
2021/04/09 00:52:44;;;;;;;28.12;18.45;;;;;;;-1.50;100.00;99849.67;1678563;85;21096;-61
2021/04/09 00:55:13;;;;;;;28.87;18.77;;;;;;;-1.53;100.00;99846.88;1639182;86;21416;-61
2021/04/09 00:57:41;;;;;;;37.78;20.32;;;;;;;-1.59;100.00;99858.10;1706043;83;21038;-61
2021/04/09 01:00:12;;;;;;;34.33;20.85;;;;;;;-1.64;100.00;99852.98;1692308;83;21459;-61
2021/04/09 01:02:40;;;;;;;33.30;20.17;;;;;;;-1.71;100.00;99860.75;1694509;83;21033;-61
2021/04/09 01:05:10;;;;;;;30.32;19.05;;;;;;;-1.83;100.00;99856.32;1681935;85;21396;-61
2021/04/09 01:07:42;;;;;;;36.48;20.10;;;;;;;-1.86;100.00;99861.92;1696482;83;21376;-61
2021/04/09 01:10:12;;;;;;;35.35;20.82;;;;;;;-1.85;100.00;99865.37;1664837;84;21186;-62
2021/04/09 01:12:39;;;;;;;30.85;18.35;;;;;;;-1.84;100.00;99871.76;1661612;85;21010;-61
2021/04/09 01:15:09;;;;;;;33.80;18.80;;;;;;;-1.83;100.00;99879.19;1679607;83;21068;-61
2021/04/09 01:17:59;;;;;;;34.13;20.08;;;;;;;-1.76;100.00;99877.53;1660694;85;21047;-61
2021/04/09 01:20:49;;;;;;;34.78;19.85;;;;;;;-1.82;100.00;99875.05;1690211;83;21453;-61
2021/04/09 01:23:39;;;;;;;35.83;20.02;;;;;;;-1.82;100.00;99874.23;1679977;83;21439;-60
2021/04/09 01:26:49;;;;;;;34.03;18.37;;;;;;;-1.82;100.00;99878.19;1660016;85;20934;-61
2021/04/09 01:29:45;;;;;;;34.78;21.52;;;;;;;-1.86;100.00;99884.75;1594392;88;21272;-59
2021/04/09 01:32:15;;;;;;;36.83;21.87;;;;;;;-1.87;100.00;99886.57;1618318;87;20933;-60
2021/04/09 01:34:46;;;;;;;37.38;21.85;;;;;;;-1.88;100.00;99896.78;1618391;87;22100;-61
2021/04/09 01:37:21;;;;;;;35.38;21.33;;;;;;;-1.89;100.00;99892.98;1618331;88;21028;-61
2021/04/09 01:40:09;;;;;;;31.35;19.65;;;;;;;-1.95;100.00;99896.61;1613264;87;21150;-60
2021/04/09 01:42:36;;;;;;;37.03;21.20;;;;;;;-1.94;100.00;99905.31;1618307;88;21123;-60
2021/04/09 01:45:06;;;;;;;35.68;21.75;;;;;;;-1.95;100.00;99903.68;1618528;88;21103;-60
2021/04/09 01:47:35;;;;;;;33.90;21.60;;;;;;;-1.97;100.00;99903.84;1613735;87;21449;-60
2021/04/09 01:50:05;;;;;;;32.63;20.32;;;;;;;-2.01;100.00;99910.43;1618314;87;21120;-60
2021/04/09 01:52:33;;;;;;;34.75;21.12;;;;;;;-2.01;100.00;99907.80;1618153;87;21083;-60
2021/04/09 01:55:02;;;;;;;;;;;;;;;-2.00;100.00;99916.50;1620678;87;21154;-61
2021/04/09 01:57:29;;;;;;;36.33;21.50;;;;;;;-1.99;100.00;99910.25;1597496;88;20231;-60
2021/04/09 01:59:59;;;;;;;;;;;;;;;-2.00;100.00;99919.14;1620700;87;21403;-61
2021/04/09 02:02:27;;;;;;;38.40;22.37;;;;;;;-2.06;100.00;99921.91;1618525;87;28718;-61
2021/04/09 02:04:54;;;;;;;38.78;21.15;;;;;;;-2.13;100.00;99926.20;1613550;87;21158;-61
2021/04/09 02:07:23;;;;;;;;;;;;;;;-2.18;100.00;99929.31;1685401;83;21372;-61
2021/04/09 02:09:50;;;;;;;34.35;20.25;;;;;;;-2.21;100.00;99926.16;1713949;82;20129;-61
2021/04/09 02:12:19;;;;;;;36.30;19.87;;;;;;;-2.21;100.00;99924.85;1714175;82;22174;-61
2021/04/09 02:14:53;;;;;;;35.50;21.30;;;;;;;-2.25;100.00;99932.75;1717903;82;21464;-61
2021/04/09 02:17:18;;;;;;;35.40;19.37;;;;;;;-2.26;100.00;99935.85;1709630;82;21034;-61
2021/04/09 02:19:47;;;;;;;30.68;18.82;;;;;;;-2.29;100.00;99934.87;1706557;83;21066;-61
2021/04/09 02:22:16;;;;;;;39.35;23.02;;;;;;;-2.33;100.00;99931.41;1711773;83;21066;-61
2021/04/09 02:24:48;;;;;;;31.48;20.65;;;;;;;-2.39;100.00;99937.64;1690654;82;21395;-61
2021/04/09 02:27:15;;;;;;;36.50;20.75;;;;;;;-2.39;100.00;99940.77;1711198;83;21431;-61
2021/04/09 02:29:43;;;;;;;36.75;19.98;;;;;;;-2.38;100.00;99945.02;1687202;82;20923;-61
2021/04/09 02:32:11;;;;;;;35.20;21.48;;;;;;;-2.46;100.00;99942.38;1678304;85;21484;-61
2021/04/09 02:34:41;;;;;;;39.85;23.32;;;;;;;-2.48;100.00;99947.79;1656273;86;21003;-61
2021/04/09 02:37:09;;;;;;;36.15;21.27;;;;;;;-2.49;100.00;99952.73;1699753;83;22276;-61
2021/04/09 02:39:38;;;;;;;40.40;22.90;;;;;;;-2.50;100.00;99954.19;1712695;82;21145;-61
2021/04/09 02:42:08;;;;;;;32.30;21.50;;;;;;;-2.48;100.00;99953.05;1717854;82;20935;-61
2021/04/09 02:44:36;;;;;;;39.80;22.13;;;;;;;-2.51;100.00;99959.12;1717571;83;20912;-61
2021/04/09 02:47:11;;;;;;;38.48;22.82;;;;;;;-2.53;100.00;99969.78;1677259;85;21032;-61
2021/04/09 02:50:12;;;;;;;35.52;21.10;;;;;;;-2.54;100.00;99969.47;1656491;85;21317;-61
2021/04/09 02:52:53;;;;;;;38.98;20.95;;;;;;;-2.58;100.00;99966.81;1750539;81;21093;-61
2021/04/09 02:55:37;;;;;;;42.23;23.30;;;;;;;-2.61;100.00;99976.34;1725965;82;21070;-60
2021/04/09 02:58:07;;;;;;;40.70;23.67;;;;;;;-2.55;100.00;99972.25;1709097;83;21034;-60
2021/04/09 03:00:36;;;;;;;35.35;20.57;;;;;;;-2.53;100.00;99979.48;1726271;82;21077;-61
2021/04/09 03:03:06;;;;;;;37.73;21.60;;;;;;;-2.57;100.00;99982.94;1716668;83;21389;-60
2021/04/09 03:05:33;;;;;;;32.03;21.80;;;;;;;-2.65;100.00;99980.25;1704618;83;21038;-60
2021/04/09 03:08:02;;;;;;;37.67;23.18;;;;;;;-2.67;100.00;99990.09;1713664;82;21045;-60
2021/04/09 03:10:29;;;;;;;41.42;21.45;;;;;;;-2.74;100.00;99991.70;1659385;84;21105;-60
2021/04/09 03:12:57;;;;;;;38.10;24.00;;;;;;;-2.81;100.00;99995.47;1674654;85;21153;-62
2021/04/09 03:15:56;;;;;;;37.83;21.68;;;;;;;-2.81;100.00;100001.53;1801324;78;28310;-61
2021/04/09 03:18:25;;;;;;;40.90;24.02;;;;;;;-2.83;100.00;100001.36;1741547;80;20907;-61
2021/04/09 03:20:56;;;;;;;40.83;23.30;;;;;;;-2.81;100.00;100009.91;1724348;82;21429;-61
2021/04/09 03:23:25;;;;;;;35.98;20.90;;;;;;;-2.77;100.00;100011.23;1689363;83;21483;-61
2021/04/09 03:25:52;;;;;;;36.90;21.13;;;;;;;-2.72;100.00;100012.08;1712426;82;20938;-61
2021/04/09 03:28:20;;;;;;;34.20;18.32;;;;;;;-2.70;100.00;100018.83;1709183;83;21345;-61
2021/04/09 03:30:51;;;;;;;38.30;21.12;;;;;;;-2.76;100.00;100022.59;1705144;83;21511;-61
2021/04/09 03:33:22;;;;;;;34.13;19.20;;;;;;;-2.80;100.00;100028.13;1686983;83;21400;-59
2021/04/09 03:35:50;;;;;;;38.35;20.68;;;;;;;-2.76;100.00;100028.66;1696702;83;21058;-60
2021/04/09 03:38:18;;;;;;;;;;;;;;;-2.72;100.00;100033.09;1739309;81;20994;-60
2021/04/09 03:40:47;;;;;;;;;;;;;;;-2.67;100.00;100034.77;1689487;83;20222;-60
2021/04/09 03:43:15;;;;;;;37.73;22.25;;;;;;;-2.66;100.00;100036.44;1693786;83;20153;-61
2021/04/09 03:45:43;;;;;;;108.45;38.83;;;;;;;-2.68;100.00;100042.33;1711970;83;22384;-60
2021/04/09 03:48:11;;;;;;;127.00;45.70;;;;;;;-2.67;100.00;100038.71;1701232;83;28325;-61
2021/04/09 03:50:39;;;;;;;126.45;48.92;;;;;;;-2.64;100.00;100037.11;1711780;83;20949;-60
2021/04/09 03:53:06;;;;;;;146.13;49.90;;;;;;;-2.61;100.00;100045.98;1711595;83;21114;-60
2021/04/09 03:55:34;;;;;;;213.43;72.70;;;;;;;-2.59;100.00;100047.48;1711249;83;20895;-61
2021/04/09 03:58:02;;;;;;;405.33;130.40;;;;;;;-2.55;100.00;100049.28;1712817;83;21219;-61
2021/04/09 04:00:30;;;;;;;525.75;240.20;;;;;;;-2.46;100.00;100050.16;1708743;84;20982;-60
2021/04/09 04:02:57;;;;;;;373.57;203.90;;;;;;;-2.30;100.00;100058.13;1694388;83;21014;-60
2021/04/09 04:05:26;;;;;;;173.13;99.87;;;;;;;-2.19;100.00;100058.33;1708386;83;20991;-60
2021/04/09 04:07:53;;;;;;;200.28;75.65;;;;;;;-2.10;100.00;100064.45;1701188;83;20880;-60
2021/04/09 04:10:21;;;;;;;178.00;103.35;;;;;;;-2.02;100.00;100073.68;1698791;82;22316;-60
2021/04/09 04:12:52;;;;;;;204.03;116.35;;;;;;;-1.96;100.00;100068.61;1704056;83;20928;-60
2021/04/09 04:15:21;;;;;;;99.40;52.85;;;;;;;-1.80;100.00;100070.95;1712961;82;20990;-60
2021/04/09 04:17:48;;;;;;;126.12;66.28;;;;;;;-1.66;100.00;100076.09;1716453;82;21117;-60
2021/04/09 04:20:18;;;;;;;93.20;50.70;;;;;;;-1.52;100.00;100070.16;1707116;83;21159;-60
2021/04/09 04:22:46;;;;;;;89.77;47.13;;;;;;;-1.39;100.00;100083.70;1721645;82;21373;-61
2021/04/09 04:25:13;;;;;;;61.05;36.80;;;;;;;-1.24;100.00;100081.73;1718241;82;20974;-60
2021/04/09 04:27:42;;;;;;;71.85;36.48;;;;;;;-1.08;100.00;100083.03;1710557;82;20923;-60
2021/04/09 04:30:12;;;;;;;60.03;33.28;;;;;;;-0.97;100.00;100089.80;1718358;82;25999;-61
2021/04/09 04:32:41;;;;;;;52.90;31.52;;;;;;;-0.84;100.00;100100.65;1754316;80;20979;-61
2021/04/09 04:35:11;;;;;;;63.95;34.75;;;;;;;-0.74;100.00;100100.47;1773941;80;21392;-61
2021/04/09 04:37:39;;;;;;;65.00;36.73;;;;;;;-0.67;100.00;100101.45;1766927;80;20977;-61
2021/04/09 04:40:09;;;;;;;63.30;34.33;;;;;;;-0.57;100.00;100107.36;1716003;83;20975;-60
2021/04/09 04:42:36;;;;;;;42.30;23.70;;;;;;;-0.50;100.00;100117.56;1765483;79;21434;-61
2021/04/09 04:45:07;;;;;;;35.25;21.23;;;;;;;-0.49;100.00;100117.06;1781171;79;21544;-60
2021/04/09 04:47:35;;;;;;;29.40;18.70;;;;;;;-0.38;100.00;100118.05;1757853;80;21186;-60
2021/04/09 04:50:04;;;;;;;28.53;17.93;;;;;;;-0.25;100.00;100113.55;1716367;82;20934;-61
2021/04/09 04:52:32;;;;;;;27.65;17.35;;;;;;;-0.12;100.00;100115.17;1751313;80;21464;-60
2021/04/09 04:55:00;;;;;;;27.55;17.20;;;;;;;0.01;100.00;100121.22;1716990;82;21030;-60
2021/04/09 04:57:29;;;;;;;30.08;18.75;;;;;;;0.14;100.00;100126.77;1769385;79;20954;-60
2021/04/09 04:59:56;;;;;;;30.55;18.62;;;;;;;0.25;100.00;100135.32;1748391;80;21391;-59
2021/04/09 05:02:24;;;;;;;26.68;16.52;;;;;;;0.42;100.00;100132.92;1755168;80;21127;-60
2021/04/09 05:04:52;;;;;;;29.35;18.40;;;;;;;0.60;100.00;100137.42;1752329;80;21341;-61
2021/04/09 05:07:20;;;;;;;26.77;17.25;;;;;;;0.60;100.00;100137.42;1754923;80;20975;-59
2021/04/09 05:09:49;;;;;;;26.52;17.17;;;;;;;0.58;100.00;100138.09;1715959;83;20983;-60
2021/04/09 05:12:16;;;;;;;23.10;15.32;;;;;;;0.62;100.00;100147.83;1765592;80;22052;-60
2021/04/09 05:14:44;;;;;;;22.13;15.07;;;;;;;0.71;100.00;100149.90;1764525;79;21071;-60
2021/04/09 05:17:13;;;;;;;24.18;16.52;;;;;;;0.77;100.00;100148.71;1745711;80;21025;-60
2021/04/09 05:19:41;;;;;;;22.60;16.30;;;;;;;0.82;100.00;100155.61;1701174;84;20917;-60
2021/04/09 05:22:09;;;;;;;24.50;17.00;;;;;;;0.91;100.00;100159.03;1727388;81;21093;-59
2021/04/09 05:24:37;;;;;;;27.42;17.23;;;;;;;0.96;100.00;100161.16;1700222;84;21259;-60
2021/04/09 05:27:08;;;;;;;33.63;22.37;;;;;;;1.05;100.00;100164.04;1749192;81;21004;-60
2021/04/09 05:29:37;;;;;;;24.75;17.52;;;;;;;1.16;100.00;100170.25;1754925;81;21024;-60
2021/04/09 05:32:10;;;;;;;37.13;26.75;;;;;;;1.23;100.00;100173.02;1710308;83;21026;-59
2021/04/09 05:34:38;;;;;;;32.28;19.73;;;;;;;1.21;100.00;100172.36;1729365;81;20975;-60
2021/04/09 05:37:06;;;;;;;30.60;18.85;;;;;;;0.96;100.00;100179.16;1709345;84;21359;-60
2021/04/09 05:39:41;;;;;;;34.27;20.62;;;;;;;0.81;100.00;100175.13;1771846;79;20911;-60
2021/04/09 05:42:15;;;;;;;26.30;18.27;;;;;;;0.78;100.00;100178.09;1772012;80;20867;-60
2021/04/09 05:44:43;;;;;;;27.65;18.45;;;;;;;0.39;100.00;100178.14;1768599;81;28142;-60
2021/04/09 05:47:11;;;;;;;28.00;17.87;;;;;;;0.17;100.00;100177.08;1766575;81;20885;-59
2021/04/09 05:49:39;;;;;;;28.87;17.70;;;;;;;0.10;100.00;100182.23;1766086;80;21383;-60
2021/04/09 05:52:08;;;;;;;34.18;19.27;;;;;;;0.04;100.00;100195.28;1686136;83;20979;-59
2021/04/09 05:54:37;;;;;;;28.77;18.37;;;;;;;0.01;100.00;100193.80;1712252;82;21043;-59
2021/04/09 05:57:07;;;;;;;28.42;17.02;;;;;;;-0.01;100.00;100190.51;1766174;81;20900;-60
2021/04/09 05:59:34;;;;;;;34.00;20.88;;;;;;;0.01;100.00;100199.08;1743773;81;20912;-60
2021/04/09 06:02:05;;;;;;;28.50;16.97;;;;;;;0.08;100.00;100205.84;1700401;84;21544;-60
2021/04/09 06:04:33;;;;;;;27.02;18.05;;;;;;;0.09;100.00;100205.65;1680990;83;20964;-59
2021/04/09 06:07:00;;;;;;;24.37;16.27;;;;;;;0.14;100.00;100199.86;1704714;82;21559;-60
2021/04/09 06:09:28;;;;;;;29.15;18.92;;;;;;;0.21;100.00;100206.11;1734627;82;20981;-61
2021/04/09 06:11:58;;;;;;;29.12;17.95;;;;;;;0.35;100.00;100201.95;1770088;79;21063;-60
2021/04/09 06:14:26;;;;;;;26.05;16.75;;;;;;;0.46;100.00;100208.66;1767654;79;21374;-60
2021/04/09 06:16:56;;;;;;;28.80;18.05;;;;;;;0.45;100.00;100208.34;1782919;80;21045;-60
2021/04/09 06:19:25;;;;;;;28.47;16.97;;;;;;;0.43;100.00;100209.83;1779614;79;20955;-60
2021/04/09 06:21:53;;;;;;;27.60;18.85;;;;;;;0.58;100.00;100212.56;1788806;79;21452;-60
2021/04/09 06:24:21;;;;;;;30.15;18.67;;;;;;;0.50;100.00;100207.33;1794800;79;20962;-60
2021/04/09 06:26:48;;;;;;;28.60;18.07;;;;;;;0.54;100.00;100213.89;1783848;80;21380;-60
2021/04/09 06:29:17;;;;;;;25.35;17.62;;;;;;;0.61;100.00;100217.02;1782391;80;21141;-61
2021/04/09 06:31:45;;;;;;;28.30;17.52;;;;;;;0.64;100.00;100232.52;1783231;80;20924;-60
2021/04/09 06:34:13;;;;;;;35.55;19.20;;;;;;;0.77;100.00;100225.85;1783309;80;20904;-60
2021/04/09 06:36:56;;;;;;;27.65;14.55;;;;;;;0.77;100.00;100223.21;1638539;87;21046;-61
2021/04/09 06:39:27;;;;;;;39.98;25.85;;;;;;;0.75;100.00;100223.87;1609321;89;21424;-61
2021/04/09 06:41:57;;;;;;;52.53;30.08;;;;;;;0.88;100.00;100234.69;1510064;93;21241;-60
2021/04/09 06:44:25;;;;;;;32.33;20.82;;;;;;;0.87;100.00;100236.20;1496302;93;21017;-60
2021/04/09 06:46:55;;;;;;;27.05;18.65;;;;;;;1.15;100.00;100241.80;1518921;93;21534;-60
2021/04/09 06:49:25;;;;;;;25.92;18.37;;;;;;;1.15;100.00;100243.13;1520378;93;21137;-60
2021/04/09 06:51:53;;;;;;;41.40;27.37;;;;;;;1.33;100.00;100244.19;1512187;93;21418;-61
2021/04/09 06:54:23;;;;;;;25.92;18.00;;;;;;;1.44;100.00;100247.21;1527091;91;21242;-60
2021/04/09 06:56:51;;;;;;;24.70;17.27;;;;;;;1.45;100.00;100250.20;1567162;89;21010;-62
2021/04/09 06:59:24;;;;;;;26.20;16.60;;;;;;;1.52;100.00;100251.64;1565846;85;21164;-59
2021/04/09 07:01:52;;;;;;;31.25;17.30;;;;;;;1.69;100.00;100250.98;1693462;84;21103;-61
2021/04/09 07:04:46;;;;;;;27.70;19.10;;;;;;;1.98;100.00;100256.02;1827123;77;23108;-60
2021/04/09 07:07:17;;;;;;;31.40;20.32;;;;;;;2.01;100.00;100259.62;1805825;79;21429;-60
2021/04/09 07:09:45;;;;;;;26.30;16.75;;;;;;;2.05;100.00;100252.47;1756414;80;21485;-61
2021/04/09 07:12:30;;;;;;;30.72;18.05;;;;;;;2.03;100.00;100260.27;1750800;80;20986;-61
2021/04/09 07:15:08;;;;;;;29.90;18.25;;;;;;;2.15;100.00;100263.61;1656337;85;21022;-60
2021/04/09 07:17:40;;;;;;;26.40;17.75;;;;;;;2.48;100.00;100267.25;1741029;82;21082;-59
2021/04/09 07:20:22;;;;;;;22.70;14.73;;;;;;;2.75;100.00;100267.59;1735968;82;20896;-61
2021/04/09 07:22:55;;;;;;;21.45;15.05;;;;;;;3.12;100.00;100271.09;1708900;81;21376;-61
2021/04/09 07:25:34;;;;;;;27.58;14.55;;;;;;;3.30;100.00;100266.67;1731656;82;21014;-61
2021/04/09 07:28:20;;;;;;;25.90;17.25;;;;;;;3.28;100.00;100270.83;1739268;82;21046;-59
2021/04/09 07:30:56;;;;;;;23.62;16.32;;;;;;;3.33;100.00;100274.25;1735231;82;21198;-61
2021/04/09 07:33:26;;;;;;;24.65;16.45;;;;;;;3.72;100.00;100278.30;1712060;82;21208;-61
2021/04/09 07:35:58;;;;;;;25.82;17.35;;;;;;;4.11;100.00;100280.44;1738063;82;22130;-60
2021/04/09 07:38:32;;;;;;;22.55;15.35;;;;;;;4.34;100.00;100280.72;1739931;82;21491;-61
2021/04/09 07:41:10;;;;;;;27.80;17.02;;;;;;;4.14;100.00;100283.22;1737320;82;20952;-61
2021/04/09 07:43:42;;;;;;;23.50;18.55;;;;;;;4.46;100.00;100282.62;1720830;82;20941;-61
2021/04/09 07:46:26;;;;;;;23.30;16.52;;;;;;;4.51;100.00;100284.19;1697223;84;21140;-61
2021/04/09 07:49:05;;;;;;;23.92;16.27;;;;;;;4.41;100.00;100294.84;1691079;82;21420;-62
2021/04/09 07:51:33;;;;;;;21.20;15.98;;;;;;;4.17;100.00;100289.49;1662085;82;21535;-62
2021/04/09 07:54:10;;;;;;;24.47;16.90;;;;;;;4.22;100.00;100295.86;1701899;82;21185;-61
2021/04/09 07:56:42;;;;;;;20.23;15.45;;;;;;;4.60;100.00;100296.80;1731796;80;21007;-61
2021/04/09 07:59:11;;;;;;;26.20;14.98;;;;;;;4.90;100.00;100297.86;1726740;82;21035;-61
2021/04/09 08:01:48;;;;;;;22.22;15.53;;;;;;;5.01;100.00;100300.47;1725211;82;21402;-60
2021/04/09 08:04:17;;;;;;;20.30;16.15;;;;;;;4.85;100.00;100303.80;1712993;82;21456;-61
2021/04/09 08:06:45;;;;;;;16.93;10.50;;;;;;;5.04;100.00;100294.75;1715706;82;21142;-62
2021/04/09 08:09:13;;;;;;;18.27;12.85;;;;;;;4.93;100.00;100290.83;1757750;81;20988;-60
2021/04/09 08:11:41;;;;;;;23.05;17.02;;;;;;;5.26;100.00;100290.11;1772359;79;21035;-60
2021/04/09 08:14:24;;;;;;;20.90;13.95;;;;;;;5.55;100.00;100297.75;1751686;81;21388;-60
2021/04/09 08:16:54;;;;;;;22.52;16.75;;;;;;;5.80;100.00;100296.64;1780275;79;21076;-60
2021/04/09 08:19:24;;;;;;;11.95;7.05;;;;;;;5.70;100.00;100298.08;1784692;79;20917;-60
2021/04/09 08:21:57;;;;;;;15.30;11.57;;;;;;;5.86;100.00;100300.88;1776845;79;21525;-60
2021/04/09 08:24:28;;;;;;;17.80;12.33;;;;;;;6.20;100.00;100298.53;1772059;79;20980;-60
2021/04/09 08:26:56;;;;;;;21.35;13.45;;;;;;;6.25;100.00;100300.55;1793400;79;21307;-59
2021/04/09 08:29:25;;;;;;;18.02;12.33;;;;;;;5.54;100.00;100292.13;1793833;78;20992;-60
2021/04/09 08:31:53;;;;;;;;;;;;;;;6.00;100.00;100297.19;1782980;78;21169;-59
2021/04/09 08:34:22;;;;;;;18.48;13.93;;;;;;;6.28;100.00;100295.64;1760559;79;20207;-61
2021/04/09 08:36:51;;;;;;;19.77;14.23;;;;;;;6.36;100.00;100298.08;1769222;79;20971;-60
2021/04/09 08:39:21;;;;;;;17.92;12.58;;;;;;;6.36;100.00;100298.60;1788540;79;21370;-63
2021/04/09 08:41:49;;;;;;;19.73;12.37;;;;;;;6.68;100.00;100295.55;1775934;79;20935;-61
2021/04/09 08:44:20;;;;;;;20.72;14.83;;;;;;;6.83;100.00;100298.77;1776627;78;20954;-60
2021/04/09 08:46:48;;;;;;;19.20;12.15;;;;;;;6.72;100.00;100295.44;1761904;78;21567;-60
2021/04/09 08:49:16;;;;;;;;;;;;;;;6.79;100.00;100302.91;1793756;78;20982;-60
2021/04/09 08:51:44;;;;;;;18.77;14.05;;;;;;;7.22;100.00;100304.98;1783342;79;21372;-60
2021/04/09 08:54:21;;;;;;;20.57;13.95;;;;;;;7.26;100.00;100304.86;1784317;79;21023;-61
2021/04/09 08:56:50;;;;;;;20.80;14.00;;;;;;;6.71;100.00;100304.98;1646035;86;20994;-61
2021/04/09 08:59:40;;;;;;;21.15;14.18;;;;;;;7.21;100.00;100302.02;1647928;86;21239;-60
2021/04/09 09:02:24;;;;;;;14.25;10.70;;;;;;;7.36;100.00;100296.91;1831547;78;22205;-61
2021/04/09 09:05:09;;;;;;;16.07;11.35;;;;;;;7.17;100.00;100301.31;1759136;80;21036;-61
2021/04/09 09:07:55;;;;;;;14.50;11.93;;;;;;;7.16;100.00;100313.04;1722391;81;22186;-61
2021/04/09 09:10:32;;;;;;;22.77;13.55;;;;;;;7.36;100.00;100303.59;1639768;85;21540;-61
2021/04/09 09:13:09;;;;;;;17.02;12.80;;;;;;;7.35;100.00;100298.77;1649580;84;21055;-61
2021/04/09 09:15:56;;;;;;;16.40;12.03;;;;;;;7.43;96.13;100301.17;1719341;82;21541;-61
2021/04/09 09:18:33;;;;;;;16.82;13.00;;;;;;;7.61;97.71;100307.12;1724528;82;21054;-60
2021/04/09 09:21:18;;;;;;;18.87;14.55;;;;;;;8.00;92.45;100299.84;1766887;77;28047;-61
2021/04/09 09:24:04;;;;;;;16.10;12.80;;;;;;;8.04;96.68;100303.73;1705019;82;21145;-61
2021/04/09 09:26:38;;;;;;;19.32;14.83;;;;;;;8.09;94.80;100306.56;1679908;83;21363;-60
2021/04/09 09:29:17;;;;;;;20.37;14.10;;;;;;;8.20;92.75;100305.02;1700620;83;21492;-60
2021/04/09 09:34:44;;;;;;;29.27;19.10;;;;;;;8.47;90.88;100306.13;1833876;77;21789;-61
2021/04/09 09:37:28;;;;;;;36.58;23.50;;;;;;;8.77;87.41;100304.38;1806100;79;21587;-59
2021/04/09 09:40:06;;;;;;;31.30;21.60;;;;;;;8.46;85.91;100314.69;1730978;80;21412;-61
2021/04/09 09:42:41;;;;;;;33.18;23.10;;;;;;;8.83;84.61;100309.88;1758145;79;20987;-61
2021/04/09 09:45:15;;;;;;;26.65;18.30;;;;;;;8.62;78.77;100303.09;1775626;80;20912;-59
2021/04/09 09:47:47;;;;;;;32.35;20.68;;;;;;;8.37;81.08;100312.77;1735775;80;21019;-60
2021/04/09 09:50:19;;;;;;;21.10;15.83;;;;;;;8.76;77.68;100306.73;1723018;80;21177;-60
2021/04/09 09:53:00;;;;;;;14.18;11.10;;;;;;;8.70;77.65;100307.65;1740958;81;21377;-59
2021/04/09 09:55:34;;;;;;;14.70;10.48;;;;;;;8.65;77.34;100304.83;1729784;81;20958;-60
2021/04/09 09:58:18;;;;;;;15.03;11.28;;;;;;;8.98;78.76;100290.23;1732194;81;20952;-60
2021/04/09 10:00:59;;;;;;;19.07;9.55;;;;;;;8.79;79.18;100309.48;1744933;81;21516;-60
2021/04/09 10:03:36;;;;;;;12.53;9.68;;;;;;;8.75;73.25;100306.45;1740357;80;21145;-60
2021/04/09 10:06:12;;;;;;;16.87;9.98;;;;;;;8.95;71.29;100302.73;1762403;80;21382;-60
2021/04/09 10:08:43;;;;;;;17.45;11.03;;;;;;;8.93;72.68;100307.48;1762772;80;21003;-60
2021/04/09 10:11:16;;;;;;;10.80;8.40;;;;;;;8.77;73.30;100310.23;1756413;80;20995;-61
2021/04/09 10:13:46;;;;;;;12.13;7.87;;;;;;;8.87;69.06;100298.50;1748370;81;21026;-59
2021/04/09 10:16:20;;;;;;;17.10;9.85;;;;;;;8.91;68.67;100305.55;1746483;80;21534;-60
2021/04/09 10:18:55;;;;;;;7.87;6.97;;;;;;;8.96;70.41;100299.81;1749227;80;22316;-60
2021/04/09 10:21:31;;;;;;;9.58;6.87;;;;;;;9.02;62.78;100310.17;1756949;80;20971;-59
2021/04/09 10:24:19;;;;;;;;;;;;;;;8.84;64.68;100306.95;1729080;81;20967;-58
2021/04/09 10:26:58;;;;;;;6.70;4.67;;;;;;;8.96;60.07;100299.81;1691215;83;20273;-61
2021/04/09 10:29:30;;;;;;;9.18;7.80;;;;;;;8.27;63.39;100299.61;1706904;83;20948;-61
2021/04/09 10:32:17;;;;;;;9.23;7.58;;;;;;;8.68;63.29;100290.18;1808206;78;22719;-59
2021/04/09 10:34:49;;;;;;;11.78;9.15;;;;;;;8.74;61.87;100297.30;1736441;80;21026;-59
2021/04/09 10:37:24;;;;;;;6.90;4.78;;;;;;;8.85;59.96;100295.75;1742594;80;21359;-59
2021/04/09 10:40:00;;;;;;;7.00;5.28;;;;;;;8.85;54.72;100300.58;1826557;77;22293;-60
2021/04/09 10:42:28;;;;;;;8.18;7.40;;;;;;;8.82;51.38;100297.52;1754205;79;20956;-59
2021/04/09 10:44:55;;;;;;;6.15;4.35;;;;;;;8.57;52.22;100293.90;1797408;79;21370;-59
2021/04/09 10:47:24;;;;;;;7.22;4.95;;;;;;;9.06;46.13;100293.11;1795878;78;20952;-60
2021/04/09 10:49:52;;;;;;;9.03;5.58;;;;;;;9.39;48.76;100286.80;1735020;79;21146;-59
2021/04/09 10:52:20;;;;;;;8.78;5.50;;;;;;;9.57;47.18;100294.48;1742422;79;21770;-59
2021/04/09 10:54:51;;;;;;;9.65;7.10;;;;;;;9.31;45.48;100284.45;1797354;79;20988;-61
2021/04/09 10:57:21;;;;;;;9.15;6.83;;;;;;;9.49;52.14;100288.92;1799189;79;21537;-60
2021/04/09 10:59:51;;;;;;;9.50;7.00;;;;;;;9.04;53.03;100292.52;1747857;81;21039;-59
2021/04/09 11:02:25;;;;;;;11.08;7.92;;;;;;;9.39;52.98;100282.78;1804899;79;21090;-60
2021/04/09 11:04:57;;;;;;;10.70;7.03;;;;;;;9.74;52.63;100286.06;1790299;78;21548;-59
2021/04/09 11:07:46;;;;;;;10.70;6.33;;;;;;;9.81;52.84;100289.99;1791848;79;20987;-59
2021/04/09 11:10:36;;;;;;;7.17;5.40;;;;;;;10.18;50.16;100293.82;1786829;79;21106;-60
2021/04/09 11:13:05;;;;;;;8.15;6.03;;;;;;;9.82;48.49;100289.77;1712787;81;21197;-60
2021/04/09 11:15:42;;;;;;;8.83;7.08;;;;;;;9.50;51.03;100285.72;1675541;85;21206;-60
2021/04/09 11:18:13;;;;;;;12.53;8.20;;;;;;;9.71;49.80;100290.55;1732704;80;21229;-60
2021/04/09 11:20:45;;;;;;;8.58;7.00;;;;;;;9.53;52.42;100287.93;1679647;83;21165;-61
2021/04/09 11:23:15;;;;;;;9.10;6.92;;;;;;;9.69;49.88;100283.80;1719006;82;22178;-60
2021/04/09 11:25:49;;;;;;;13.05;6.95;;;;;;;9.69;48.51;100289.16;1701800;83;21051;-61
2021/04/09 11:28:28;;;;;;;8.95;6.17;;;;;;;9.90;45.89;100285.09;1643555;85;21705;-60
2021/04/09 11:31:04;;;;;;;8.63;6.12;;;;;;;9.92;47.14;100290.55;1734437;82;21051;-60
2021/04/09 11:33:42;;;;;;;10.73;8.10;;;;;;;9.82;45.98;100283.57;1794741;78;27744;-61
2021/04/09 11:36:17;;;;;;;8.20;5.58;;;;;;;9.97;45.74;100283.12;1721829;82;20916;-59
2021/04/09 11:39:04;;;;;;;6.67;5.10;;;;;;;9.59;44.78;100279.80;1726911;82;21397;-60